createdAt,value
2022-10-08T00:03:08.009Z,1007.518
2022-10-08T00:23:07.809Z,1007.462
2022-10-08T00:43:07.575Z,1007.279
2022-10-08T01:03:08.317Z,1007.158
2022-10-08T01:23:07.117Z,1007.196
2022-10-08T01:43:08.063Z,1007.189
2022-10-08T02:03:08.703Z,1007.004
2022-10-08T02:23:07.556Z,1006.992
2022-10-08T02:43:07.366Z,1006.837
2022-10-08T03:03:08.173Z,1006.921
2022-10-08T03:23:08.081Z,1006.813
2022-10-08T03:43:07.961Z,1007.101
2022-10-08T04:03:09.155Z,1007.044
2022-10-08T04:23:08.018Z,1006.998
2022-10-08T04:43:08.142Z,1007.198
2022-10-08T05:03:09.132Z,1007.365
2022-10-08T05:23:07.864Z,1007.7
2022-10-08T05:43:08.068Z,1007.415
2022-10-08T06:03:09.239Z,1007.987
2022-10-08T06:23:08.064Z,1008.243
2022-10-08T06:43:08.198Z,1008.424
2022-10-08T07:03:09.014Z,1008.661
2022-10-08T07:23:07.890Z,1009.101
2022-10-08T07:43:07.738Z,1009.286
2022-10-08T08:03:08.567Z,1009.485
2022-10-08T08:23:07.372Z,1009.71
2022-10-08T08:43:07.307Z,1010.149
2022-10-08T09:03:08.219Z,1010.273
2022-10-08T09:23:08.202Z,1010.393
2022-10-08T09:43:08.125Z,1010.574
2022-10-08T10:03:08.926Z,1010.8
2022-10-08T10:23:07.663Z,1010.803
2022-10-08T10:43:07.808Z,1010.883
2022-10-08T11:03:08.823Z,1010.896
2022-10-08T11:23:07.706Z,1010.94
2022-10-08T11:43:07.757Z,1010.857
2022-10-08T12:03:09.060Z,1010.95
2022-10-08T12:23:07.889Z,1011.1
2022-10-08T12:43:07.853Z,1011.258
2022-10-08T13:03:08.758Z,1011.305
2022-10-08T13:23:11.285Z,1011.338
2022-10-08T13:43:07.148Z,1011.414
2022-10-08T14:03:09.222Z,1011.665
2022-10-08T14:23:07.981Z,1011.644
2022-10-08T14:43:08.001Z,1011.779
2022-10-08T15:03:08.943Z,1012.272
2022-10-08T15:23:07.896Z,1012.258
2022-10-08T15:43:07.934Z,1012.363
2022-10-08T16:03:09.060Z,1012.673
2022-10-08T16:23:07.919Z,1012.853
2022-10-08T16:43:08.117Z,1013.175
2022-10-08T17:03:08.957Z,1013.546
2022-10-08T17:23:07.993Z,1013.848
2022-10-08T17:43:08.010Z,1014.208
2022-10-08T18:03:09.156Z,1014.341
2022-10-08T18:23:08.079Z,1014.637
2022-10-08T18:43:08.100Z,1014.923
2022-10-08T19:03:09.454Z,1015.109
2022-10-08T19:23:07.276Z,1015.248
2022-10-08T19:43:07.241Z,1015.453
2022-10-08T20:03:08.504Z,1015.515
2022-10-08T20:23:07.394Z,1015.749
2022-10-08T20:43:07.408Z,1015.976
2022-10-08T21:03:08.324Z,1016.076
2022-10-08T21:23:07.231Z,1016.103
2022-10-08T21:43:07.326Z,1016.222
2022-10-08T22:03:08.565Z,1016.383
2022-10-08T22:23:07.337Z,1016.433
2022-10-08T22:43:08.075Z,1016.503
2022-10-08T23:03:08.900Z,1016.456
2022-10-08T23:23:07.733Z,1016.565
2022-10-08T23:43:07.655Z,1016.605
